sensor_id;sensor_type;location;lat;lon;timestamp;temperature;humidity
48946;DHT22;34999;50.940;3.998;2023-07-24T00:02:13;18.00;99.90
48946;DHT22;34999;50.940;3.998;2023-07-24T00:04:41;18.00;99.90
48946;DHT22;34999;50.940;3.998;2023-07-24T00:07:09;18.00;99.90
48946;DHT22;34999;50.940;3.998;2023-07-24T00:09:38;18.00;99.90
48946;DHT22;34999;50.940;3.998;2023-07-24T00:12:07;17.90;99.90
48946;DHT22;34999;50.940;3.998;2023-07-24T00:14:37;17.90;99.90
48946;DHT22;34999;50.940;3.998;2023-07-24T00:17:05;17.90;99.90
48946;DHT22;34999;50.940;3.998;2023-07-24T00:19:34;17.90;99.90
48946;DHT22;34999;50.940;3.998;2023-07-24T00:22:02;17.90;99.90
48946;DHT22;34999;50.940;3.998;2023-07-24T00:24:31;17.90;99.90
48946;DHT22;34999;50.940;3.998;2023-07-24T00:27:00;17.90;99.90
48946;DHT22;34999;50.940;3.998;2023-07-24T00:29:28;17.90;99.90
48946;DHT22;34999;50.940;3.998;2023-07-24T00:31:58;17.90;99.90
48946;DHT22;34999;50.940;3.998;2023-07-24T00:34:27;17.90;99.90
48946;DHT22;34999;50.940;3.998;2023-07-24T00:36:55;17.80;99.90
48946;DHT22;34999;50.940;3.998;2023-07-24T00:39:24;17.90;99.90
48946;DHT22;34999;50.940;3.998;2023-07-24T00:41:55;17.80;99.90
48946;DHT22;34999;50.940;3.998;2023-07-24T00:44:24;17.80;99.90
48946;DHT22;34999;50.940;3.998;2023-07-24T00:46:53;17.80;99.90
48946;DHT22;34999;50.940;3.998;2023-07-24T00:49:23;17.80;99.90
48946;DHT22;34999;50.940;3.998;2023-07-24T00:51:52;17.90;99.90
48946;DHT22;34999;50.940;3.998;2023-07-24T00:54:22;17.80;99.90
48946;DHT22;34999;50.940;3.998;2023-07-24T00:56:51;17.80;99.90
48946;DHT22;34999;50.940;3.998;2023-07-24T00:59:20;17.80;99.90
48946;DHT22;34999;50.940;3.998;2023-07-24T01:01:49;17.80;99.90
48946;DHT22;34999;50.940;3.998;2023-07-24T01:04:18;17.80;99.90
48946;DHT22;34999;50.940;3.998;2023-07-24T01:06:47;17.80;99.90
48946;DHT22;34999;50.940;3.998;2023-07-24T01:09:16;17.80;99.90
48946;DHT22;34999;50.940;3.998;2023-07-24T01:11:46;17.80;99.90
48946;DHT22;34999;50.940;3.998;2023-07-24T01:14:21;17.70;99.90
48946;DHT22;34999;50.940;3.998;2023-07-24T01:16:52;17.50;99.90
48946;DHT22;34999;50.940;3.998;2023-07-24T01:19:33;17.40;99.90
48946;DHT22;34999;50.940;3.998;2023-07-24T01:22:11;17.40;99.90
48946;DHT22;34999;50.940;3.998;2023-07-24T01:24:54;17.30;99.90
48946;DHT22;34999;50.940;3.998;2023-07-24T01:27:26;17.20;99.90
48946;DHT22;34999;50.940;3.998;2023-07-24T01:29:55;17.20;99.90
48946;DHT22;34999;50.940;3.998;2023-07-24T01:32:23;17.20;99.90
48946;DHT22;34999;50.940;3.998;2023-07-24T01:34:52;17.10;99.90
48946;DHT22;34999;50.940;3.998;2023-07-24T01:37:22;17.10;99.90
48946;DHT22;34999;50.940;3.998;2023-07-24T01:39:51;17.10;99.90
48946;DHT22;34999;50.940;3.998;2023-07-24T01:42:20;17.10;99.90
48946;DHT22;34999;50.940;3.998;2023-07-24T01:44:52;17.00;99.90
48946;DHT22;34999;50.940;3.998;2023-07-24T01:47:21;17.00;99.90
48946;DHT22;34999;50.940;3.998;2023-07-24T01:49:50;17.00;99.90
48946;DHT22;34999;50.940;3.998;2023-07-24T01:52:18;17.00;99.90
48946;DHT22;34999;50.940;3.998;2023-07-24T01:54:46;17.00;99.90
48946;DHT22;34999;50.940;3.998;2023-07-24T01:57:14;17.00;99.90
48946;DHT22;34999;50.940;3.998;2023-07-24T01:59:43;17.00;99.90
48946;DHT22;34999;50.940;3.998;2023-07-24T02:02:13;16.90;99.90
48946;DHT22;34999;50.940;3.998;2023-07-24T02:04:46;16.90;99.90
48946;DHT22;34999;50.940;3.998;2023-07-24T02:07:14;17.00;99.90
48946;DHT22;34999;50.940;3.998;2023-07-24T02:09:43;17.00;99.90
48946;DHT22;34999;50.940;3.998;2023-07-24T02:12:11;17.00;99.90
48946;DHT22;34999;50.940;3.998;2023-07-24T02:14:39;17.00;99.90
48946;DHT22;34999;50.940;3.998;2023-07-24T02:17:07;17.00;99.90
48946;DHT22;34999;50.940;3.998;2023-07-24T02:19:37;17.00;99.90
48946;DHT22;34999;50.940;3.998;2023-07-24T02:22:05;17.00;99.90
48946;DHT22;34999;50.940;3.998;2023-07-24T02:24:34;17.00;99.90
48946;DHT22;34999;50.940;3.998;2023-07-24T02:27:02;17.10;99.90
48946;DHT22;34999;50.940;3.998;2023-07-24T02:29:31;17.10;99.90
48946;DHT22;34999;50.940;3.998;2023-07-24T02:32:03;17.10;99.90
48946;DHT22;34999;50.940;3.998;2023-07-24T02:34:31;17.10;99.90
48946;DHT22;34999;50.940;3.998;2023-07-24T02:37:01;17.10;99.90
48946;DHT22;34999;50.940;3.998;2023-07-24T02:39:30;17.10;99.90
48946;DHT22;34999;50.940;3.998;2023-07-24T02:41:58;17.10;99.90
48946;DHT22;34999;50.940;3.998;2023-07-24T02:44:26;17.10;99.90
48946;DHT22;34999;50.940;3.998;2023-07-24T02:46:54;17.10;99.90
48946;DHT22;34999;50.940;3.998;2023-07-24T02:49:23;17.10;99.90
48946;DHT22;34999;50.940;3.998;2023-07-24T02:51:51;17.10;99.90
48946;DHT22;34999;50.940;3.998;2023-07-24T02:54:21;17.00;99.90
48946;DHT22;34999;50.940;3.998;2023-07-24T02:56:49;16.90;99.90
48946;DHT22;34999;50.940;3.998;2023-07-24T02:59:18;16.90;99.90
48946;DHT22;34999;50.940;3.998;2023-07-24T03:01:46;16.90;99.90
48946;DHT22;34999;50.940;3.998;2023-07-24T03:04:14;16.90;99.90
48946;DHT22;34999;50.940;3.998;2023-07-24T03:06:43;16.90;99.90
48946;DHT22;34999;50.940;3.998;2023-07-24T03:09:11;16.90;99.90
48946;DHT22;34999;50.940;3.998;2023-07-24T03:11:41;16.80;99.90
48946;DHT22;34999;50.940;3.998;2023-07-24T03:14:09;16.80;99.90
48946;DHT22;34999;50.940;3.998;2023-07-24T03:16:37;16.70;99.90
48946;DHT22;34999;50.940;3.998;2023-07-24T03:19:06;16.60;99.90
48946;DHT22;34999;50.940;3.998;2023-07-24T03:21:34;16.50;99.90
48946;DHT22;34999;50.940;3.998;2023-07-24T03:24:03;16.30;99.90
48946;DHT22;34999;50.940;3.998;2023-07-24T03:26:31;16.30;99.90
48946;DHT22;34999;50.940;3.998;2023-07-24T03:29:01;16.30;99.90
48946;DHT22;34999;50.940;3.998;2023-07-24T03:31:29;16.20;99.90
48946;DHT22;34999;50.940;3.998;2023-07-24T03:33:57;16.20;99.90
48946;DHT22;34999;50.940;3.998;2023-07-24T03:36:26;16.10;99.90
48946;DHT22;34999;50.940;3.998;2023-07-24T03:38:55;16.10;99.90
48946;DHT22;34999;50.940;3.998;2023-07-24T03:41:23;16.00;99.90
48946;DHT22;34999;50.940;3.998;2023-07-24T03:43:51;16.00;99.90
48946;DHT22;34999;50.940;3.998;2023-07-24T03:46:21;15.90;99.90
48946;DHT22;34999;50.940;3.998;2023-07-24T03:48:49;15.90;99.90
48946;DHT22;34999;50.940;3.998;2023-07-24T03:51:18;15.90;99.90
48946;DHT22;34999;50.940;3.998;2023-07-24T03:53:46;16.00;99.90
48946;DHT22;34999;50.940;3.998;2023-07-24T03:56:14;16.00;99.90
48946;DHT22;34999;50.940;3.998;2023-07-24T03:58:44;16.00;99.90
48946;DHT22;34999;50.940;3.998;2023-07-24T04:01:13;16.00;99.90
48946;DHT22;34999;50.940;3.998;2023-07-24T04:03:43;16.00;99.90
48946;DHT22;34999;50.940;3.998;2023-07-24T04:06:11;15.90;99.90
48946;DHT22;34999;50.940;3.998;2023-07-24T04:08:40;15.80;99.90
48946;DHT22;34999;50.940;3.998;2023-07-24T04:11:08;15.90;99.90
48946;DHT22;34999;50.940;3.998;2023-07-24T04:13:36;15.90;99.90
48946;DHT22;34999;50.940;3.998;2023-07-24T04:16:05;15.90;99.90
48946;DHT22;34999;50.940;3.998;2023-07-24T04:18:33;15.90;99.90
48946;DHT22;34999;50.940;3.998;2023-07-24T04:21:02;15.90;99.90
48946;DHT22;34999;50.940;3.998;2023-07-24T04:23:31;15.90;99.90
48946;DHT22;34999;50.940;3.998;2023-07-24T04:25:59;15.90;99.90
48946;DHT22;34999;50.940;3.998;2023-07-24T04:28:27;15.90;99.90
48946;DHT22;34999;50.940;3.998;2023-07-24T04:30:59;15.90;99.90
48946;DHT22;34999;50.940;3.998;2023-07-24T04:33:28;15.90;99.90
48946;DHT22;34999;50.940;3.998;2023-07-24T04:35:59;16.00;99.90
48946;DHT22;34999;50.940;3.998;2023-07-24T04:38:28;16.00;99.90
48946;DHT22;34999;50.940;3.998;2023-07-24T04:40:57;16.00;99.90
48946;DHT22;34999;50.940;3.998;2023-07-24T04:43:25;16.00;99.90
48946;DHT22;34999;50.940;3.998;2023-07-24T04:45:54;16.00;99.90
48946;DHT22;34999;50.940;3.998;2023-07-24T04:48:22;16.00;99.90
48946;DHT22;34999;50.940;3.998;2023-07-24T04:50:53;16.00;99.90
48946;DHT22;34999;50.940;3.998;2023-07-24T04:53:22;16.10;99.90
48946;DHT22;34999;50.940;3.998;2023-07-24T04:55:52;16.10;99.90
48946;DHT22;34999;50.940;3.998;2023-07-24T04:58:20;16.00;99.90
48946;DHT22;34999;50.940;3.998;2023-07-24T05:00:49;16.00;99.90
48946;DHT22;34999;50.940;3.998;2023-07-24T05:03:17;16.00;99.90
48946;DHT22;34999;50.940;3.998;2023-07-24T05:05:48;16.00;99.90
48946;DHT22;34999;50.940;3.998;2023-07-24T05:08:17;16.00;99.90
48946;DHT22;34999;50.940;3.998;2023-07-24T05:10:45;16.00;99.90
48946;DHT22;34999;50.940;3.998;2023-07-24T05:13:15;16.10;99.90
48946;DHT22;34999;50.940;3.998;2023-07-24T05:15:44;16.10;99.90
48946;DHT22;34999;50.940;3.998;2023-07-24T05:18:12;16.10;99.90
48946;DHT22;34999;50.940;3.998;2023-07-24T05:20:44;16.10;99.90
48946;DHT22;34999;50.940;3.998;2023-07-24T05:23:13;16.10;99.90
48946;DHT22;34999;50.940;3.998;2023-07-24T05:25:41;16.20;99.90
48946;DHT22;34999;50.940;3.998;2023-07-24T05:28:10;16.20;99.90
48946;DHT22;34999;50.940;3.998;2023-07-24T05:30:40;16.20;99.90
48946;DHT22;34999;50.940;3.998;2023-07-24T05:33:08;16.20;99.90
48946;DHT22;34999;50.940;3.998;2023-07-24T05:35:36;16.30;99.90
48946;DHT22;34999;50.940;3.998;2023-07-24T05:38:05;16.30;99.90
48946;DHT22;34999;50.940;3.998;2023-07-24T05:40:33;16.40;99.90
48946;DHT22;34999;50.940;3.998;2023-07-24T05:43:01;16.40;99.90
48946;DHT22;34999;50.940;3.998;2023-07-24T05:45:31;16.40;99.90
48946;DHT22;34999;50.940;3.998;2023-07-24T05:48:00;16.40;99.90
48946;DHT22;34999;50.940;3.998;2023-07-24T05:50:29;16.40;99.90
48946;DHT22;34999;50.940;3.998;2023-07-24T05:52:57;16.50;99.90
48946;DHT22;34999;50.940;3.998;2023-07-24T05:55:25;16.50;99.90
48946;DHT22;34999;50.940;3.998;2023-07-24T05:57:53;16.60;99.90
48946;DHT22;34999;50.940;3.998;2023-07-24T06:00:22;16.60;99.90
48946;DHT22;34999;50.940;3.998;2023-07-24T06:02:51;16.60;99.90
48946;DHT22;34999;50.940;3.998;2023-07-24T06:05:24;16.70;99.90
48946;DHT22;34999;50.940;3.998;2023-07-24T06:07:52;16.80;99.90
48946;DHT22;34999;50.940;3.998;2023-07-24T06:10:20;16.90;99.90
48946;DHT22;34999;50.940;3.998;2023-07-24T06:12:49;17.00;99.90
48946;DHT22;34999;50.940;3.998;2023-07-24T06:15:17;17.10;99.90
48946;DHT22;34999;50.940;3.998;2023-07-24T06:17:46;17.10;99.90
48946;DHT22;34999;50.940;3.998;2023-07-24T06:20:17;17.10;99.90
48946;DHT22;34999;50.940;3.998;2023-07-24T06:22:47;17.10;99.90
48946;DHT22;34999;50.940;3.998;2023-07-24T06:25:15;17.10;99.90
48946;DHT22;34999;50.940;3.998;2023-07-24T06:27:44;17.00;99.90
48946;DHT22;34999;50.940;3.998;2023-07-24T06:30:12;17.00;99.90
48946;DHT22;34999;50.940;3.998;2023-07-24T06:32:42;17.00;99.90
48946;DHT22;34999;50.940;3.998;2023-07-24T06:35:11;17.00;99.90
48946;DHT22;34999;50.940;3.998;2023-07-24T06:37:40;17.00;99.90
48946;DHT22;34999;50.940;3.998;2023-07-24T06:40:10;17.00;99.90
48946;DHT22;34999;50.940;3.998;2023-07-24T06:42:38;17.00;99.90
48946;DHT22;34999;50.940;3.998;2023-07-24T06:45:08;17.00;99.90
48946;DHT22;34999;50.940;3.998;2023-07-24T06:47:36;17.00;99.90
48946;DHT22;34999;50.940;3.998;2023-07-24T06:50:06;16.90;99.90
48946;DHT22;34999;50.940;3.998;2023-07-24T06:52:35;16.90;99.90
48946;DHT22;34999;50.940;3.998;2023-07-24T06:55:04;16.90;99.90
48946;DHT22;34999;50.940;3.998;2023-07-24T06:57:34;17.00;99.90
48946;DHT22;34999;50.940;3.998;2023-07-24T07:00:03;16.90;99.90
48946;DHT22;34999;50.940;3.998;2023-07-24T07:02:32;16.90;99.90
48946;DHT22;34999;50.940;3.998;2023-07-24T07:05:00;17.00;99.90
48946;DHT22;34999;50.940;3.998;2023-07-24T07:07:29;17.20;99.90
48946;DHT22;34999;50.940;3.998;2023-07-24T07:09:57;17.40;99.90
48946;DHT22;34999;50.940;3.998;2023-07-24T07:12:25;17.50;99.90
48946;DHT22;34999;50.940;3.998;2023-07-24T07:14:55;17.60;99.90
48946;DHT22;34999;50.940;3.998;2023-07-24T07:17:24;17.60;99.90
48946;DHT22;34999;50.940;3.998;2023-07-24T07:19:53;17.70;99.90
48946;DHT22;34999;50.940;3.998;2023-07-24T07:22:23;17.80;99.90
48946;DHT22;34999;50.940;3.998;2023-07-24T07:24:51;17.90;99.90
48946;DHT22;34999;50.940;3.998;2023-07-24T07:27:20;18.10;99.90
48946;DHT22;34999;50.940;3.998;2023-07-24T07:29:48;18.30;99.90
48946;DHT22;34999;50.940;3.998;2023-07-24T07:32:18;18.40;99.90
48946;DHT22;34999;50.940;3.998;2023-07-24T07:34:47;18.30;99.90
48946;DHT22;34999;50.940;3.998;2023-07-24T07:37:15;18.40;99.90
48946;DHT22;34999;50.940;3.998;2023-07-24T07:39:44;18.50;99.90
48946;DHT22;34999;50.940;3.998;2023-07-24T07:42:12;18.50;99.90
48946;DHT22;34999;50.940;3.998;2023-07-24T07:44:45;18.60;99.90
48946;DHT22;34999;50.940;3.998;2023-07-24T07:47:13;18.70;99.90
48946;DHT22;34999;50.940;3.998;2023-07-24T07:49:43;18.80;99.90
48946;DHT22;34999;50.940;3.998;2023-07-24T07:52:12;18.90;99.90
48946;DHT22;34999;50.940;3.998;2023-07-24T07:54:46;18.80;99.90
48946;DHT22;34999;50.940;3.998;2023-07-24T07:57:15;19.10;99.90
48946;DHT22;34999;50.940;3.998;2023-07-24T07:59:43;19.40;99.90
48946;DHT22;34999;50.940;3.998;2023-07-24T08:02:12;19.40;99.90
48946;DHT22;34999;50.940;3.998;2023-07-24T08:04:40;19.60;99.90
48946;DHT22;34999;50.940;3.998;2023-07-24T08:07:10;19.50;99.90
48946;DHT22;34999;50.940;3.998;2023-07-24T08:09:38;19.50;99.90
48946;DHT22;34999;50.940;3.998;2023-07-24T08:12:07;19.40;99.90
48946;DHT22;34999;50.940;3.998;2023-07-24T08:14:36;19.50;99.90
48946;DHT22;34999;50.940;3.998;2023-07-24T08:17:04;19.40;99.90
48946;DHT22;34999;50.940;3.998;2023-07-24T08:19:33;19.00;99.90
48946;DHT22;34999;50.940;3.998;2023-07-24T08:22:01;18.90;99.90
48946;DHT22;34999;50.940;3.998;2023-07-24T08:24:35;18.60;99.90
48946;DHT22;34999;50.940;3.998;2023-07-24T08:27:04;18.40;99.90
48946;DHT22;34999;50.940;3.998;2023-07-24T08:29:32;18.40;99.90
48946;DHT22;34999;50.940;3.998;2023-07-24T08:32:03;18.30;99.90
48946;DHT22;34999;50.940;3.998;2023-07-24T08:34:32;18.30;99.90
48946;DHT22;34999;50.940;3.998;2023-07-24T08:37:01;18.10;99.90
48946;DHT22;34999;50.940;3.998;2023-07-24T08:39:30;18.20;99.90
48946;DHT22;34999;50.940;3.998;2023-07-24T08:42:08;18.40;99.90
48946;DHT22;34999;50.940;3.998;2023-07-24T08:44:37;18.40;99.90
48946;DHT22;34999;50.940;3.998;2023-07-24T08:47:09;18.80;99.90
48946;DHT22;34999;50.940;3.998;2023-07-24T08:49:39;19.00;99.90
48946;DHT22;34999;50.940;3.998;2023-07-24T08:52:08;19.60;99.90
48946;DHT22;34999;50.940;3.998;2023-07-24T08:54:55;19.80;99.90
48946;DHT22;34999;50.940;3.998;2023-07-24T08:57:29;19.80;99.90
48946;DHT22;34999;50.940;3.998;2023-07-24T08:59:58;19.70;99.90
48946;DHT22;34999;50.940;3.998;2023-07-24T09:02:32;19.60;99.90
48946;DHT22;34999;50.940;3.998;2023-07-24T09:05:00;19.90;99.90
48946;DHT22;34999;50.940;3.998;2023-07-24T09:07:30;20.50;99.90
48946;DHT22;34999;50.940;3.998;2023-07-24T09:09:58;21.00;99.90
48946;DHT22;34999;50.940;3.998;2023-07-24T09:12:28;21.10;99.90
48946;DHT22;34999;50.940;3.998;2023-07-24T09:15:03;21.20;99.90
48946;DHT22;34999;50.940;3.998;2023-07-24T09:17:33;21.20;99.90
48946;DHT22;34999;50.940;3.998;2023-07-24T09:20:02;21.60;99.90
48946;DHT22;34999;50.940;3.998;2023-07-24T09:22:31;21.70;83.90
48946;DHT22;34999;50.940;3.998;2023-07-24T09:25:01;22.00;68.10
48946;DHT22;34999;50.940;3.998;2023-07-24T09:27:31;21.70;83.80
48946;DHT22;34999;50.940;3.998;2023-07-24T09:30:02;21.60;87.90
48946;DHT22;34999;50.940;3.998;2023-07-24T09:32:30;21.40;82.30
48946;DHT22;34999;50.940;3.998;2023-07-24T09:34:59;21.20;44.90
48946;DHT22;34999;50.940;3.998;2023-07-24T09:37:34;21.30;43.30
48946;DHT22;34999;50.940;3.998;2023-07-24T09:40:04;21.40;16.90
48946;DHT22;34999;50.940;3.998;2023-07-24T09:42:35;21.40;47.50
48946;DHT22;34999;50.940;3.998;2023-07-24T09:45:19;21.40;32.50
48946;DHT22;34999;50.940;3.998;2023-07-24T09:47:50;21.40;52.50
48946;DHT22;34999;50.940;3.998;2023-07-24T09:50:27;21.30;37.60
48946;DHT22;34999;50.940;3.998;2023-07-24T09:52:56;21.20;52.40
48946;DHT22;34999;50.940;3.998;2023-07-24T09:55:30;21.10;53.70
48946;DHT22;34999;50.940;3.998;2023-07-24T09:58:03;20.90;56.40
48946;DHT22;34999;50.940;3.998;2023-07-24T10:00:32;20.70;60.50
48946;DHT22;34999;50.940;3.998;2023-07-24T10:03:01;20.50;54.00
48946;DHT22;34999;50.940;3.998;2023-07-24T10:05:30;20.30;76.00
48946;DHT22;34999;50.940;3.998;2023-07-24T10:08:00;20.20;68.80
48946;DHT22;34999;50.940;3.998;2023-07-24T10:10:30;20.20;78.00
48946;DHT22;34999;50.940;3.998;2023-07-24T10:12:59;20.30;94.10
48946;DHT22;34999;50.940;3.998;2023-07-24T10:15:29;20.40;89.30
48946;DHT22;34999;50.940;3.998;2023-07-24T10:18:02;20.40;90.70
48946;DHT22;34999;50.940;3.998;2023-07-24T10:20:35;20.40;98.80
48946;DHT22;34999;50.940;3.998;2023-07-24T10:23:04;20.40;99.90
48946;DHT22;34999;50.940;3.998;2023-07-24T10:25:34;20.20;94.20
48946;DHT22;34999;50.940;3.998;2023-07-24T10:28:06;20.50;93.50
48946;DHT22;34999;50.940;3.998;2023-07-24T10:30:39;20.70;92.40
48946;DHT22;34999;50.940;3.998;2023-07-24T10:33:09;21.00;80.90
48946;DHT22;34999;50.940;3.998;2023-07-24T10:35:42;21.20;74.60
48946;DHT22;34999;50.940;3.998;2023-07-24T10:38:12;21.50;76.90
48946;DHT22;34999;50.940;3.998;2023-07-24T10:40:42;21.60;6.90
48946;DHT22;34999;50.940;3.998;2023-07-24T10:43:11;21.60;24.20
48946;DHT22;34999;50.940;3.998;2023-07-24T10:45:45;21.70;1.00
48946;DHT22;34999;50.940;3.998;2023-07-24T10:48:15;22.00;12.10
48946;DHT22;34999;50.940;3.998;2023-07-24T10:50:44;23.00;1.00
48946;DHT22;34999;50.940;3.998;2023-07-24T10:53:17;23.80;1.00
48946;DHT22;34999;50.940;3.998;2023-07-24T10:55:47;24.20;1.00
48946;DHT22;34999;50.940;3.998;2023-07-24T10:58:17;24.00;1.00
48946;DHT22;34999;50.940;3.998;2023-07-24T11:00:47;24.10;1.00
48946;DHT22;34999;50.940;3.998;2023-07-24T11:03:17;24.50;1.00
48946;DHT22;34999;50.940;3.998;2023-07-24T11:05:46;25.20;1.00
48946;DHT22;34999;50.940;3.998;2023-07-24T11:08:16;25.40;99.90
48946;DHT22;34999;50.940;3.998;2023-07-24T11:10:45;25.00;1.00
48946;DHT22;34999;50.940;3.998;2023-07-24T11:13:14;24.80;1.00
48946;DHT22;34999;50.940;3.998;2023-07-24T11:15:43;24.70;1.00
48946;DHT22;34999;50.940;3.998;2023-07-24T11:18:16;24.80;99.90
48946;DHT22;34999;50.940;3.998;2023-07-24T11:20:49;24.70;1.00
48946;DHT22;34999;50.940;3.998;2023-07-24T11:23:19;24.90;1.00
48946;DHT22;34999;50.940;3.998;2023-07-24T11:25:50;25.00;1.00
48946;DHT22;34999;50.940;3.998;2023-07-24T11:28:19;25.00;99.90
48946;DHT22;34999;50.940;3.998;2023-07-24T11:30:47;25.00;99.90
48946;DHT22;34999;50.940;3.998;2023-07-24T11:33:18;25.30;99.90
48946;DHT22;34999;50.940;3.998;2023-07-24T11:35:47;25.40;99.90
48946;DHT22;34999;50.940;3.998;2023-07-24T11:38:16;25.70;99.90
48946;DHT22;34999;50.940;3.998;2023-07-24T11:40:45;25.70;99.90
48946;DHT22;34999;50.940;3.998;2023-07-24T11:43:17;25.70;96.60
48946;DHT22;34999;50.940;3.998;2023-07-24T11:45:46;25.30;1.00
48946;DHT22;34999;50.940;3.998;2023-07-24T11:48:22;25.00;99.90
48946;DHT22;34999;50.940;3.998;2023-07-24T11:50:56;24.70;1.00
48946;DHT22;34999;50.940;3.998;2023-07-24T11:53:26;24.60;1.00
48946;DHT22;34999;50.940;3.998;2023-07-24T11:55:58;24.40;99.90
48946;DHT22;34999;50.940;3.998;2023-07-24T11:58:27;24.30;99.90
48946;DHT22;34999;50.940;3.998;2023-07-24T12:00:56;24.10;99.90
48946;DHT22;34999;50.940;3.998;2023-07-24T12:03:28;23.80;99.90
48946;DHT22;34999;50.940;3.998;2023-07-24T12:05:56;23.40;1.00
48946;DHT22;34999;50.940;3.998;2023-07-24T12:08:31;23.20;1.00
48946;DHT22;34999;50.940;3.998;2023-07-24T12:11:00;22.90;1.00
48946;DHT22;34999;50.940;3.998;2023-07-24T12:13:28;22.70;1.00
48946;DHT22;34999;50.940;3.998;2023-07-24T12:15:58;22.50;1.00
48946;DHT22;34999;50.940;3.998;2023-07-24T12:18:31;22.60;1.00
48946;DHT22;34999;50.940;3.998;2023-07-24T12:20:59;22.70;1.00
48946;DHT22;34999;50.940;3.998;2023-07-24T12:23:28;22.90;1.00
48946;DHT22;34999;50.940;3.998;2023-07-24T12:25:56;23.00;1.00
48946;DHT22;34999;50.940;3.998;2023-07-24T12:28:25;23.10;1.00
48946;DHT22;34999;50.940;3.998;2023-07-24T12:30:53;23.30;1.00
48946;DHT22;34999;50.940;3.998;2023-07-24T12:33:22;23.60;1.00
48946;DHT22;34999;50.940;3.998;2023-07-24T12:35:52;23.90;1.00
48946;DHT22;34999;50.940;3.998;2023-07-24T12:38:21;24.40;1.00
48946;DHT22;34999;50.940;3.998;2023-07-24T12:40:49;24.60;1.00
48946;DHT22;34999;50.940;3.998;2023-07-24T12:43:17;24.60;1.00
48946;DHT22;34999;50.940;3.998;2023-07-24T12:45:46;24.70;1.00
48946;DHT22;34999;50.940;3.998;2023-07-24T12:48:15;24.60;1.00
48946;DHT22;34999;50.940;3.998;2023-07-24T12:50:44;24.60;1.00
48946;DHT22;34999;50.940;3.998;2023-07-24T12:53:14;24.30;1.00
48946;DHT22;34999;50.940;3.998;2023-07-24T12:55:54;24.40;1.00
48946;DHT22;34999;50.940;3.998;2023-07-24T12:58:22;24.30;99.90
48946;DHT22;34999;50.940;3.998;2023-07-24T13:00:51;24.20;1.00
48946;DHT22;34999;50.940;3.998;2023-07-24T13:03:19;24.10;1.00
48946;DHT22;34999;50.940;3.998;2023-07-24T13:05:48;23.90;1.00
48946;DHT22;34999;50.940;3.998;2023-07-24T13:08:18;23.70;1.00
48946;DHT22;34999;50.940;3.998;2023-07-24T13:10:49;23.60;1.00
48946;DHT22;34999;50.940;3.998;2023-07-24T13:13:17;23.60;1.00
48946;DHT22;34999;50.940;3.998;2023-07-24T13:15:46;23.80;1.00
48946;DHT22;34999;50.940;3.998;2023-07-24T13:18:16;24.00;1.00
48946;DHT22;34999;50.940;3.998;2023-07-24T13:20:55;24.00;1.00
48946;DHT22;34999;50.940;3.998;2023-07-24T13:23:25;23.60;1.00
48946;DHT22;34999;50.940;3.998;2023-07-24T13:25:53;23.20;1.00
48946;DHT22;34999;50.940;3.998;2023-07-24T13:28:22;23.00;1.00
48946;DHT22;34999;50.940;3.998;2023-07-24T13:30:50;22.90;1.00
48946;DHT22;34999;50.940;3.998;2023-07-24T13:33:19;23.00;1.00
48946;DHT22;34999;50.940;3.998;2023-07-24T13:35:48;23.20;1.00
48946;DHT22;34999;50.940;3.998;2023-07-24T13:38:17;23.60;1.00
48946;DHT22;34999;50.940;3.998;2023-07-24T13:40:49;24.00;1.00
48946;DHT22;34999;50.940;3.998;2023-07-24T13:43:18;24.40;1.00
48946;DHT22;34999;50.940;3.998;2023-07-24T13:45:46;24.60;99.90
48946;DHT22;34999;50.940;3.998;2023-07-24T13:48:15;24.20;99.90
48946;DHT22;34999;50.940;3.998;2023-07-24T13:50:44;23.70;1.00
48946;DHT22;34999;50.940;3.998;2023-07-24T13:53:12;22.90;1.00
48946;DHT22;34999;50.940;3.998;2023-07-24T13:55:41;22.40;1.00
48946;DHT22;34999;50.940;3.998;2023-07-24T13:58:10;21.90;1.00
48946;DHT22;34999;50.940;3.998;2023-07-24T14:00:38;21.60;1.00
48946;DHT22;34999;50.940;3.998;2023-07-24T14:03:07;21.40;1.00
48946;DHT22;34999;50.940;3.998;2023-07-24T14:05:35;21.20;1.00
48946;DHT22;34999;50.940;3.998;2023-07-24T14:08:05;21.00;1.00
48946;DHT22;34999;50.940;3.998;2023-07-24T14:10:33;20.80;1.00
48946;DHT22;34999;50.940;3.998;2023-07-24T14:13:02;20.50;1.00
48946;DHT22;34999;50.940;3.998;2023-07-24T14:15:32;20.30;1.00
48946;DHT22;34999;50.940;3.998;2023-07-24T14:18:00;20.00;1.00
48946;DHT22;34999;50.940;3.998;2023-07-24T14:20:29;19.70;35.90
48946;DHT22;34999;50.940;3.998;2023-07-24T14:22:58;19.40;68.20
48946;DHT22;34999;50.940;3.998;2023-07-24T14:25:26;19.20;93.90
48946;DHT22;34999;50.940;3.998;2023-07-24T14:27:55;19.00;99.90
48946;DHT22;34999;50.940;3.998;2023-07-24T14:30:23;18.90;99.90
48946;DHT22;34999;50.940;3.998;2023-07-24T14:32:53;18.80;99.90
48946;DHT22;34999;50.940;3.998;2023-07-24T14:35:21;18.80;99.90
48946;DHT22;34999;50.940;3.998;2023-07-24T14:37:50;18.60;99.90
48946;DHT22;34999;50.940;3.998;2023-07-24T14:40:19;18.50;99.90
48946;DHT22;34999;50.940;3.998;2023-07-24T14:42:47;18.50;99.90
48946;DHT22;34999;50.940;3.998;2023-07-24T14:45:15;18.40;99.90
48946;DHT22;34999;50.940;3.998;2023-07-24T14:47:44;18.40;99.90
48946;DHT22;34999;50.940;3.998;2023-07-24T14:50:14;18.70;99.90
48946;DHT22;34999;50.940;3.998;2023-07-24T14:52:42;19.40;99.90
48946;DHT22;34999;50.940;3.998;2023-07-24T14:55:11;20.10;99.90
48946;DHT22;34999;50.940;3.998;2023-07-24T14:57:39;20.70;99.90
48946;DHT22;34999;50.940;3.998;2023-07-24T15:00:08;21.20;99.90
48946;DHT22;34999;50.940;3.998;2023-07-24T15:02:37;21.40;99.90
48946;DHT22;34999;50.940;3.998;2023-07-24T15:05:06;21.50;99.90
48946;DHT22;34999;50.940;3.998;2023-07-24T15:07:36;21.70;99.90
48946;DHT22;34999;50.940;3.998;2023-07-24T15:10:05;21.80;97.60
48946;DHT22;34999;50.940;3.998;2023-07-24T15:12:36;22.10;94.30
48946;DHT22;34999;50.940;3.998;2023-07-24T15:15:06;21.90;59.30
48946;DHT22;34999;50.940;3.998;2023-07-24T15:17:34;21.80;87.10
48946;DHT22;34999;50.940;3.998;2023-07-24T15:20:06;22.00;74.60
48946;DHT22;34999;50.940;3.998;2023-07-24T15:22:37;21.80;66.90
48946;DHT22;34999;50.940;3.998;2023-07-24T15:25:06;21.60;56.70
48946;DHT22;34999;50.940;3.998;2023-07-24T15:27:34;21.60;69.30
48946;DHT22;34999;50.940;3.998;2023-07-24T15:30:03;21.40;65.80
48946;DHT22;34999;50.940;3.998;2023-07-24T15:32:32;21.30;63.90
48946;DHT22;34999;50.940;3.998;2023-07-24T15:35:01;21.40;53.30
48946;DHT22;34999;50.940;3.998;2023-07-24T15:37:29;21.70;66.90
48946;DHT22;34999;50.940;3.998;2023-07-24T15:39:59;21.90;26.70
48946;DHT22;34999;50.940;3.998;2023-07-24T15:42:27;22.30;24.40
48946;DHT22;34999;50.940;3.998;2023-07-24T15:44:56;22.30;1.00
48946;DHT22;34999;50.940;3.998;2023-07-24T15:47:24;22.20;1.00